createdAt,value
2023-04-03T00:00:37.058Z,2.85
2023-04-03T00:03:04.098Z,3.08
2023-04-03T00:05:30.957Z,3.30
2023-04-03T00:07:57.694Z,3.05
2023-04-03T00:10:24.594Z,3.15
2023-04-03T00:12:51.158Z,2.80
2023-04-03T00:15:18.152Z,2.67
2023-04-03T00:17:44.936Z,3.83
2023-04-03T00:20:11.870Z,3.92
2023-04-03T00:22:38.431Z,2.58
2023-04-03T00:25:05.462Z,3.15
2023-04-03T00:27:32.158Z,3.45
2023-04-03T00:29:58.943Z,2.80
2023-04-03T00:32:25.776Z,4.05
2023-04-03T00:34:52.443Z,3.35
2023-04-03T00:37:19.204Z,2.70
2023-04-03T00:39:46.388Z,3.35
2023-04-03T00:42:13.478Z,3.85
2023-04-03T00:44:40.222Z,3.00
2023-04-03T00:47:09.913Z,3.25
2023-04-03T00:49:39.575Z,3.13
2023-04-03T00:52:09.896Z,3.35
2023-04-03T00:54:37.640Z,3.25
2023-04-03T00:57:06.608Z,3.53
2023-04-03T00:59:37.128Z,3.15
2023-04-03T01:02:03.937Z,2.95
2023-04-03T01:04:34.179Z,3.00
2023-04-03T01:07:19.213Z,2.92
2023-04-03T01:09:48.136Z,3.35
2023-04-03T01:12:27.878Z,2.88
2023-04-03T01:14:57.598Z,2.30
2023-04-03T01:17:39.589Z,2.97
2023-04-03T01:20:35.975Z,3.20
2023-04-03T01:23:12.062Z,3.17
2023-04-03T01:25:44.553Z,2.80
2023-04-03T01:30:49.549Z,2.40
2023-04-03T01:33:17.463Z,2.78
2023-04-03T01:35:44.798Z,2.60
2023-04-03T01:38:12.193Z,3.35
2023-04-03T01:40:39.295Z,2.88
2023-04-03T01:43:06.253Z,3.13
2023-04-03T01:45:33.078Z,2.63
2023-04-03T01:47:59.885Z,3.45
2023-04-03T01:50:26.824Z,2.70
2023-04-03T01:52:53.437Z,2.88
2023-04-03T01:55:20.471Z,2.67
2023-04-03T01:57:47.232Z,2.75
2023-04-03T02:00:14.591Z,2.63
2023-04-03T02:02:42.012Z,2.15
2023-04-03T02:05:09.314Z,2.60
2023-04-03T02:07:36.061Z,2.55
2023-04-03T02:10:03.081Z,3.13
2023-04-03T02:12:29.657Z,2.90
2023-04-03T02:14:56.467Z,2.70
2023-04-03T02:17:23.107Z,2.33
2023-04-03T02:19:50.044Z,2.33
2023-04-03T02:22:16.923Z,2.08
2023-04-03T02:24:43.848Z,2.38
2023-04-03T02:27:13.047Z,2.33
2023-04-03T02:29:39.843Z,2.47
2023-04-03T02:32:06.805Z,2.40
2023-04-03T02:34:34.351Z,2.20
2023-04-03T02:37:02.183Z,2.40
2023-04-03T02:39:29.387Z,2.60
2023-04-03T02:41:58.449Z,1.92
2023-04-03T02:44:25.719Z,2.38
2023-04-03T02:46:53.273Z,2.53
2023-04-03T02:49:20.057Z,2.55
2023-04-03T02:51:46.954Z,2.33
2023-04-03T02:54:13.614Z,2.90
2023-04-03T02:56:44.606Z,2.40
2023-04-03T02:59:11.192Z,2.80
2023-04-03T03:01:39.614Z,3.03
2023-04-03T03:04:06.399Z,2.47
2023-04-03T03:06:33.145Z,2.33
2023-04-03T03:08:59.993Z,2.33
2023-04-03T03:11:27.042Z,2.38
2023-04-03T03:13:53.684Z,2.70
2023-04-03T03:16:20.391Z,2.60
2023-04-03T03:18:47.118Z,2.47
2023-04-03T03:21:13.843Z,3.05
2023-04-03T03:23:41.149Z,2.80
2023-04-03T03:26:11.134Z,2.85
2023-04-03T03:28:40.154Z,2.80
2023-04-03T03:31:08.084Z,2.45
2023-04-03T03:33:36.916Z,3.10
2023-04-03T03:36:03.700Z,2.78
2023-04-03T03:38:30.830Z,2.85
2023-04-03T03:40:59.321Z,2.60
2023-04-03T03:43:26.322Z,2.72
2023-04-03T03:45:55.118Z,2.65
2023-04-03T03:48:23.646Z,2.10
2023-04-03T03:50:51.056Z,2.78
2023-04-03T03:53:20.454Z,2.75
2023-04-03T03:55:48.972Z,2.65
2023-04-03T03:58:16.569Z,2.17
2023-04-03T04:00:43.274Z,2.30
2023-04-03T04:03:10.995Z,2.30
2023-04-03T04:05:38.361Z,2.40
2023-04-03T04:08:05.789Z,2.65
2023-04-03T04:10:33.318Z,2.35
2023-04-03T04:13:00.911Z,2.33
2023-04-03T04:15:29.089Z,2.40
2023-04-03T04:17:57.903Z,2.25
2023-04-03T04:20:24.857Z,2.67
2023-04-03T04:22:51.592Z,2.60
2023-04-03T04:25:19.874Z,2.13
2023-04-03T04:27:47.133Z,2.00
2023-04-03T04:30:15.718Z,2.60
2023-04-03T04:32:44.717Z,2.17
2023-04-03T04:35:14.044Z,2.30
2023-04-03T04:37:43.928Z,2.30
2023-04-03T04:40:11.738Z,2.22
2023-04-03T04:42:38.311Z,2.10
2023-04-03T04:45:06.634Z,2.08
2023-04-03T04:47:33.318Z,2.35
2023-04-03T04:50:00.709Z,2.60
2023-04-03T04:52:27.589Z,2.25
2023-04-03T04:54:54.503Z,2.03
2023-04-03T04:57:21.406Z,2.25
2023-04-03T04:59:48.282Z,2.20
2023-04-03T05:02:14.835Z,2.15
2023-04-03T05:04:43.888Z,2.20
2023-04-03T05:07:17.168Z,2.10
2023-04-03T05:09:44.009Z,2.50
2023-04-03T05:12:12.587Z,2.75
2023-04-03T05:14:45.379Z,2.42
2023-04-03T05:17:12.071Z,2.72
2023-04-03T05:19:42.813Z,1.98
2023-04-03T05:22:10.517Z,2.25
2023-04-03T05:24:37.165Z,2.33
2023-04-03T05:27:05.096Z,2.35
2023-04-03T05:29:34.556Z,2.90
2023-04-03T05:32:02.613Z,2.72
2023-04-03T05:34:29.264Z,2.30
2023-04-03T05:36:56.914Z,2.95
2023-04-03T05:39:24.578Z,2.80
2023-04-03T05:41:52.084Z,2.40
2023-04-03T05:44:18.716Z,2.80
2023-04-03T05:46:47.286Z,2.00
2023-04-03T05:49:14.298Z,2.15
2023-04-03T05:51:41.447Z,2.17
2023-04-03T05:54:24.386Z,2.03
2023-04-03T05:56:54.365Z,2.83
2023-04-03T05:59:22.055Z,2.17
2023-04-03T06:01:51.892Z,2.20
2023-04-03T06:04:20.227Z,2.78
2023-04-03T06:06:58.535Z,2.67
2023-04-03T06:09:30.211Z,2.50
2023-04-03T06:11:59.547Z,2.65
2023-04-03T06:14:28.202Z,2.00
2023-04-03T06:16:55.772Z,2.45
2023-04-03T06:19:23.116Z,2.97
2023-04-03T06:21:53.401Z,2.30
2023-04-03T06:24:22.607Z,2.53
2023-04-03T06:26:50.772Z,2.35
2023-04-03T06:29:17.343Z,2.47
2023-04-03T06:31:44.686Z,2.08
2023-04-03T06:34:12.724Z,2.45
2023-04-03T06:36:40.261Z,2.40
2023-04-03T06:39:07.946Z,2.10
2023-04-03T06:41:35.969Z,1.83
2023-04-03T06:44:04.485Z,2.40
2023-04-03T06:46:31.492Z,2.00
2023-04-03T06:48:58.131Z,2.20
2023-04-03T06:51:30.032Z,2.00
2023-04-03T06:53:59.646Z,2.05
2023-04-03T06:56:27.379Z,2.10
2023-04-03T06:58:55.732Z,1.98
2023-04-03T07:01:22.525Z,2.20
2023-04-03T07:03:50.728Z,2.25
2023-04-03T07:06:18.528Z,2.25
2023-04-03T07:08:46.225Z,2.40
2023-04-03T07:11:14.144Z,2.30
2023-04-03T07:13:41.564Z,1.95
2023-04-03T07:16:09.413Z,2.13
2023-04-03T07:18:36.967Z,2.20
2023-04-03T07:21:04.559Z,2.20
2023-04-03T07:23:31.707Z,2.20
2023-04-03T07:25:58.572Z,1.92
2023-04-03T07:28:26.576Z,2.10
2023-04-03T07:30:55.916Z,2.53
2023-04-03T07:33:24.897Z,2.67
2023-04-03T07:35:51.594Z,2.65
2023-04-03T07:38:19.211Z,2.53
2023-04-03T07:40:51.002Z,2.50
2023-04-03T07:45:45.990Z,1.80
2023-04-03T07:48:13.135Z,2.03
2023-04-03T07:50:43.433Z,2.45
2023-04-03T07:53:10.705Z,2.25
2023-04-03T07:55:43.753Z,2.05
2023-04-03T07:58:12.162Z,2.83
2023-04-03T08:00:39.221Z,2.50
2023-04-03T08:03:09.604Z,2.92
2023-04-03T08:05:39.824Z,1.98
2023-04-03T08:08:08.081Z,1.98
2023-04-03T08:10:35.095Z,2.60
2023-04-03T08:13:03.112Z,2.08
2023-04-03T08:15:31.674Z,2.10
2023-04-03T08:17:59.353Z,2.00
2023-04-03T08:20:26.694Z,2.05
2023-04-03T08:22:53.719Z,2.08
2023-04-03T08:25:20.377Z,1.92
2023-04-03T08:27:47.543Z,2.20
2023-04-03T08:30:14.913Z,2.00
2023-04-03T08:32:43.507Z,2.17
2023-04-03T08:35:10.720Z,1.95
2023-04-03T08:37:38.121Z,1.90
2023-04-03T08:40:07.490Z,1.80
2023-04-03T08:42:43.632Z,2.15
2023-04-03T08:45:15.796Z,2.38
2023-04-03T08:48:06.802Z,2.00
2023-04-03T08:50:48.043Z,2.10
2023-04-03T08:53:19.366Z,2.22
2023-04-03T08:55:51.310Z,1.98
2023-04-03T08:58:27.016Z,1.70
2023-04-03T09:01:27.890Z,2.05
2023-04-03T09:03:54.600Z,1.95
2023-04-03T09:06:24.502Z,2.60
2023-04-03T09:09:03.102Z,2.00
2023-04-03T09:11:41.178Z,1.88
2023-04-03T09:14:08.016Z,2.22
2023-04-03T09:16:49.671Z,1.88
2023-04-03T09:19:19.358Z,2.05
2023-04-03T09:21:46.216Z,2.10
2023-04-03T09:24:16.067Z,3.00
2023-04-03T09:26:57.220Z,2.03
2023-04-03T09:29:25.629Z,1.88
2023-04-03T09:32:01.773Z,2.08
2023-04-03T09:34:33.051Z,2.03
2023-04-03T09:37:09.681Z,1.88
2023-04-03T09:39:51.981Z,1.80
2023-04-03T09:42:23.418Z,2.42
2023-04-03T09:44:59.363Z,2.15
2023-04-03T09:47:29.128Z,2.47
2023-04-03T09:50:16.021Z,2.15
2023-04-03T09:52:45.198Z,2.20
2023-04-03T09:55:18.937Z,2.00
2023-04-03T09:57:46.971Z,2.13
2023-04-03T10:00:37.334Z,2.10
2023-04-03T10:03:05.608Z,2.53
2023-04-03T10:05:32.271Z,1.75
2023-04-03T10:08:35.594Z,1.85
2023-04-03T10:11:19.800Z,1.85
2023-04-03T10:13:53.575Z,2.00
2023-04-03T10:16:50.141Z,1.90
2023-04-03T10:19:37.952Z,1.90
2023-04-03T10:22:09.634Z,1.75
2023-04-03T10:27:41.640Z,1.27
2023-04-03T10:30:21.844Z,1.48
2023-04-03T10:32:49.019Z,1.27
2023-04-03T10:35:42.956Z,1.48
2023-04-03T10:38:24.533Z,1.63
2023-04-03T10:41:04.657Z,1.50
2023-04-03T10:43:48.804Z,0.95
2023-04-03T10:46:36.811Z,1.30
2023-04-03T10:49:18.434Z,1.27
2023-04-03T10:51:48.758Z,1.80
2023-04-03T10:54:32.379Z,1.55
2023-04-03T10:57:12.999Z,1.40
2023-04-03T10:59:49.421Z,1.63
2023-04-03T11:02:16.646Z,1.77
2023-04-03T11:04:48.777Z,2.03
2023-04-03T11:07:24.154Z,1.90
2023-04-03T11:10:11.142Z,1.73
2023-04-03T11:12:49.031Z,1.73
2023-04-03T11:15:21.840Z,1.52
2023-04-03T11:18:14.757Z,1.75
2023-04-03T11:20:45.542Z,1.98
2023-04-03T11:23:45.833Z,2.10
2023-04-03T11:26:19.189Z,1.60
2023-04-03T11:28:47.224Z,1.90
2023-04-03T11:31:36.319Z,1.58
2023-04-03T11:34:37.274Z,1.95
2023-04-03T11:37:27.221Z,1.80
2023-04-03T11:39:58.395Z,2.00
2023-04-03T11:42:40.520Z,2.22
2023-04-03T11:45:22.543Z,1.92
2023-04-03T11:50:35.400Z,1.33
2023-04-03T11:53:07.380Z,1.85
2023-04-03T11:55:34.199Z,1.85
2023-04-03T11:58:01.291Z,1.58
2023-04-03T12:00:52.354Z,1.33
2023-04-03T12:03:43.389Z,1.75
2023-04-03T12:06:11.558Z,1.88
2023-04-03T12:08:41.324Z,1.90
2023-04-03T12:11:10.935Z,2.15
2023-04-03T12:13:56.487Z,1.52
2023-04-03T12:16:29.188Z,1.55
2023-04-03T12:18:58.065Z,1.58
2023-04-03T12:21:30.746Z,1.67
2023-04-03T12:24:05.515Z,1.38
2023-04-03T12:26:52.108Z,2.15
2023-04-03T12:29:22.766Z,1.60
2023-04-03T12:32:06.233Z,2.90
2023-04-03T12:35:10.394Z,1.25
2023-04-03T12:37:39.674Z,1.30
2023-04-03T12:40:24.909Z,1.40
2023-04-03T12:43:02.242Z,1.30
2023-04-03T12:46:03.723Z,1.85
2023-04-03T12:48:34.647Z,1.52
2023-04-03T12:51:03.352Z,1.95
2023-04-03T12:53:35.283Z,1.20
2023-04-03T12:56:28.445Z,0.90
2023-04-03T12:58:58.346Z,1.10
2023-04-03T13:01:26.430Z,1.27
2023-04-03T13:03:56.301Z,0.98
2023-04-03T13:06:33.526Z,0.93
2023-04-03T13:09:02.000Z,0.95
2023-04-03T13:11:35.983Z,1.27
2023-04-03T13:14:08.717Z,1.13
2023-04-03T13:16:35.575Z,1.40
2023-04-03T13:19:02.402Z,1.25
2023-04-03T13:21:31.439Z,1.27
2023-04-03T13:24:13.928Z,1.13
2023-04-03T13:26:43.446Z,2.53
2023-04-03T13:29:30.963Z,2.20
2023-04-03T13:31:59.982Z,1.50
2023-04-03T13:34:38.502Z,1.92
2023-04-03T13:37:05.761Z,1.45
2023-04-03T13:39:35.710Z,1.70
2023-04-03T13:42:16.907Z,1.10
2023-04-03T13:44:44.039Z,1.00
2023-04-03T13:47:13.269Z,1.10
2023-04-03T13:49:45.821Z,2.42
2023-04-03T13:52:23.206Z,1.30
2023-04-03T13:54:55.248Z,2.05
2023-04-03T13:57:22.086Z,1.45
2023-04-03T13:59:48.730Z,1.30
2023-04-03T14:02:21.379Z,1.02
2023-04-03T14:04:59.292Z,1.10
2023-04-03T14:07:26.417Z,1.40
2023-04-03T14:09:53.848Z,0.80
2023-04-03T14:12:40.194Z,0.93
2023-04-03T14:15:29.197Z,1.08
2023-04-03T14:17:56.602Z,1.42
2023-04-03T14:20:26.668Z,1.20
2023-04-03T14:22:54.676Z,0.70
2023-04-03T14:25:23.934Z,0.93
2023-04-03T14:27:55.712Z,0.90
2023-04-03T14:30:27.704Z,1.17
2023-04-03T14:32:55.544Z,0.90
2023-04-03T14:35:23.330Z,0.70
2023-04-03T14:37:50.881Z,1.10
2023-04-03T14:40:22.636Z,0.70
2023-04-03T14:42:49.838Z,0.80
2023-04-03T14:45:17.179Z,0.68
2023-04-03T14:47:50.498Z,1.08
2023-04-03T14:50:24.312Z,1.15
2023-04-03T14:52:54.986Z,0.80
2023-04-03T14:55:23.825Z,0.82
2023-04-03T14:57:50.463Z,0.82
2023-04-03T15:00:20.028Z,0.90
2023-04-03T15:02:48.800Z,1.05
2023-04-03T15:05:16.652Z,0.85
2023-04-03T15:07:48.156Z,1.08
2023-04-03T15:10:19.047Z,0.70
2023-04-03T15:12:46.732Z,0.90
2023-04-03T15:15:14.331Z,1.30
2023-04-03T15:17:41.593Z,0.93
2023-04-03T15:20:17.757Z,1.45
2023-04-03T15:22:44.569Z,1.38
2023-04-03T15:25:11.181Z,0.90
2023-04-03T15:27:38.832Z,1.33
2023-04-03T15:30:08.333Z,1.00
2023-04-03T15:32:36.180Z,0.70
2023-04-03T15:35:03.370Z,0.70
2023-04-03T15:37:30.096Z,0.80
2023-04-03T15:39:56.720Z,0.80
2023-04-03T15:42:23.499Z,1.00
2023-04-03T15:44:50.307Z,1.13
2023-04-03T15:47:16.954Z,1.23
2023-04-03T15:49:43.730Z,0.93
2023-04-03T15:52:10.762Z,0.90
2023-04-03T15:54:37.327Z,0.80
2023-04-03T15:57:03.977Z,0.80
2023-04-03T15:59:32.940Z,0.98
2023-04-03T16:02:02.615Z,0.60
2023-04-03T16:04:29.878Z,0.55
2023-04-03T16:06:56.651Z,0.80
2023-04-03T16:09:23.343Z,0.88
2023-04-03T16:11:49.897Z,0.50
2023-04-03T16:14:16.494Z,0.85
2023-04-03T16:16:43.319Z,0.35
2023-04-03T16:19:11.023Z,0.63
2023-04-03T16:21:38.033Z,0.50
2023-04-03T16:24:05.065Z,0.50
2023-04-03T16:26:32.933Z,0.57
2023-04-03T16:28:59.767Z,0.60
2023-04-03T16:31:27.204Z,0.52
2023-04-03T16:33:55.007Z,0.60
2023-04-03T16:36:21.899Z,0.57
2023-04-03T16:38:48.536Z,0.75
2023-04-03T16:41:15.550Z,0.60
2023-04-03T16:46:09.811Z,0.50
2023-04-03T16:48:36.450Z,0.90
2023-04-03T16:51:03.275Z,0.80
2023-04-03T16:53:31.084Z,0.70
2023-04-03T16:56:01.003Z,0.50
2023-04-03T16:58:27.906Z,0.70
2023-04-03T17:00:54.790Z,0.90
2023-04-03T17:03:24.161Z,0.50
2023-04-03T17:05:50.914Z,0.70
2023-04-03T17:08:19.235Z,0.73
2023-04-03T17:10:46.048Z,0.70
2023-04-03T17:13:12.759Z,0.55
2023-04-03T17:15:39.670Z,0.50
2023-04-03T17:18:07.776Z,0.70
2023-04-03T17:20:34.867Z,0.73
2023-04-03T17:23:01.588Z,0.60
2023-04-03T17:25:28.330Z,0.70
2023-04-03T17:27:54.926Z,0.70
2023-04-03T17:30:21.781Z,0.50
2023-04-03T17:32:48.997Z,0.60
2023-04-03T17:35:15.907Z,0.68
2023-04-03T17:37:42.441Z,0.85
2023-04-03T17:40:09.750Z,0.95
2023-04-03T17:42:36.307Z,0.77
2023-04-03T17:45:03.654Z,0.70
2023-04-03T17:47:30.330Z,0.80
2023-04-03T17:49:56.916Z,0.60
2023-04-03T17:52:25.449Z,0.70
2023-04-03T17:54:52.214Z,0.68
2023-04-03T17:57:19.135Z,0.73
2023-04-03T17:59:46.171Z,0.60
2023-04-03T18:02:13.017Z,1.42
2023-04-03T18:04:39.756Z,0.85
2023-04-03T18:07:09.689Z,0.90
2023-04-03T18:09:38.130Z,0.75
2023-04-03T18:12:07.852Z,0.90
2023-04-03T18:14:37.264Z,1.00
2023-04-03T18:17:05.823Z,0.73
2023-04-03T18:19:33.563Z,0.70
2023-04-03T18:22:03.582Z,1.00
2023-04-03T18:24:33.211Z,0.90
2023-04-03T18:27:07.019Z,0.80
2023-04-03T18:29:37.463Z,0.88
2023-04-03T18:32:06.114Z,0.90
2023-04-03T18:34:33.008Z,1.10
2023-04-03T18:37:00.252Z,0.68
2023-04-03T18:39:27.171Z,1.13
2023-04-03T18:41:55.170Z,1.17
2023-04-03T18:44:24.885Z,1.10
2023-04-03T18:46:53.862Z,1.75
2023-04-03T18:49:20.719Z,1.73
2023-04-03T18:51:47.573Z,1.33
2023-04-03T18:54:14.445Z,1.33
2023-04-03T18:56:41.030Z,1.40
2023-04-03T18:59:07.815Z,1.67
2023-04-03T19:04:02.272Z,1.67
2023-04-03T19:06:29.132Z,1.23
2023-04-03T19:08:55.788Z,1.85
2023-04-03T19:11:23.129Z,1.40
2023-04-03T19:14:04.543Z,1.48
2023-04-03T19:16:36.505Z,1.48
2023-04-03T19:19:03.310Z,1.52
2023-04-03T19:21:30.339Z,1.40
2023-04-03T19:23:59.367Z,1.33
2023-04-03T19:26:26.665Z,0.90
2023-04-03T19:28:53.549Z,1.80
2023-04-03T19:31:21.753Z,1.20
2023-04-03T19:33:48.395Z,0.98
2023-04-03T19:36:15.768Z,1.23
2023-04-03T19:38:42.933Z,1.10
2023-04-03T19:41:17.436Z,1.20
2023-04-03T19:43:45.195Z,1.40
2023-04-03T19:46:12.719Z,1.30
2023-04-03T19:48:39.478Z,1.10
2023-04-03T19:51:08.003Z,1.30
2023-04-03T19:53:34.739Z,0.80
2023-04-03T19:56:01.513Z,0.90
2023-04-03T19:58:30.000Z,1.00
2023-04-03T20:00:58.036Z,1.00
2023-04-03T20:03:25.665Z,0.70
2023-04-03T20:05:53.006Z,0.82
2023-04-03T20:08:20.594Z,1.00
2023-04-03T20:10:47.602Z,1.08
2023-04-03T20:13:14.331Z,0.80
2023-04-03T20:15:42.825Z,1.00
2023-04-03T20:18:18.096Z,0.90
2023-04-03T20:20:52.131Z,1.05
2023-04-03T20:23:18.761Z,1.75
2023-04-03T20:25:57.478Z,0.98
2023-04-03T20:28:28.960Z,1.25
2023-04-03T20:30:56.674Z,1.02
2023-04-03T20:33:26.157Z,0.88
2023-04-03T20:35:54.249Z,1.00
2023-04-03T20:38:21.478Z,1.13
2023-04-03T20:40:49.010Z,1.08
2023-04-03T20:43:17.079Z,1.20
2023-04-03T20:45:44.067Z,1.17
2023-04-03T20:48:12.895Z,1.55
2023-04-03T20:50:41.253Z,1.25
2023-04-03T20:53:08.414Z,1.15
2023-04-03T20:55:35.193Z,1.45
2023-04-03T20:58:02.104Z,1.27
2023-04-03T21:00:30.603Z,1.05
2023-04-03T21:02:57.964Z,1.35
2023-04-03T21:05:26.364Z,1.10
2023-04-03T21:08:30.692Z,2.28
2023-04-03T21:11:36.333Z,4.88
2023-04-03T21:14:41.052Z,2.33
2023-04-03T21:17:07.774Z,1.58
2023-04-03T21:19:35.222Z,0.90
2023-04-03T21:22:02.645Z,1.58
2023-04-03T21:24:31.440Z,1.58
2023-04-03T21:26:58.196Z,1.70
2023-04-03T21:29:24.827Z,1.40
2023-04-03T21:31:57.849Z,1.15
2023-04-03T21:34:28.986Z,1.70
2023-04-03T21:36:57.716Z,1.45
2023-04-03T21:39:24.288Z,1.58
2023-04-03T21:41:52.373Z,1.25
2023-04-03T21:44:19.697Z,1.38
2023-04-03T21:46:48.082Z,1.33
2023-04-03T21:49:14.839Z,1.70
2023-04-03T21:51:41.934Z,1.63
2023-04-03T21:54:08.759Z,1.67
2023-04-03T21:56:35.660Z,2.55
2023-04-03T21:59:03.133Z,1.65
2023-04-03T22:01:30.336Z,1.60
2023-04-03T22:04:02.611Z,3.28
2023-04-03T22:06:29.906Z,2.60
2023-04-03T22:08:57.120Z,2.50
2023-04-03T22:11:27.563Z,3.42
2023-04-03T22:13:55.544Z,3.25
2023-04-03T22:16:23.416Z,2.03
2023-04-03T22:18:52.534Z,1.77
2023-04-03T22:21:19.766Z,2.00
2023-04-03T22:23:46.323Z,1.25
2023-04-03T22:26:13.903Z,1.20
2023-04-03T22:28:43.613Z,1.23
2023-04-03T22:31:14.448Z,1.45
2023-04-03T22:33:42.363Z,1.15
2023-04-03T22:36:11.055Z,1.20
2023-04-03T22:38:39.076Z,1.20
2023-04-03T22:41:07.549Z,1.30
2023-04-03T22:43:36.243Z,1.77
2023-04-03T22:46:05.384Z,1.40
2023-04-03T22:48:32.211Z,1.50
2023-04-03T22:51:00.078Z,1.88
2023-04-03T22:53:27.871Z,1.55
2023-04-03T22:56:02.311Z,1.40
2023-04-03T22:58:29.966Z,1.20
2023-04-03T23:01:07.816Z,1.13
2023-04-03T23:03:36.230Z,1.38
2023-04-03T23:06:04.030Z,1.30
2023-04-03T23:08:32.500Z,1.60
2023-04-03T23:11:00.151Z,1.08
2023-04-03T23:13:27.898Z,1.23
2023-04-03T23:15:59.659Z,1.40
2023-04-03T23:18:29.604Z,1.52
2023-04-03T23:20:58.574Z,1.52
2023-04-03T23:23:25.469Z,1.50
2023-04-03T23:26:01.510Z,1.23
2023-04-03T23:28:29.176Z,1.60
2023-04-03T23:31:00.282Z,1.70
2023-04-03T23:33:30.814Z,1.38
2023-04-03T23:35:58.787Z,1.92
2023-04-03T23:38:25.526Z,1.50
2023-04-03T23:40:52.544Z,1.48
2023-04-03T23:43:19.119Z,1.33
2023-04-03T23:45:45.852Z,1.60
2023-04-03T23:48:12.592Z,1.40
2023-04-03T23:50:39.595Z,1.42
2023-04-03T23:53:07.292Z,1.30
2023-04-03T23:55:34.065Z,1.25
2023-04-03T23:58:00.786Z,1.38
